sensor_id;sensor_type;location;lat;lon;timestamp;pressure;altitude;pressure_sealevel;temperature;humidity
14253;BME280;7210;51.502;10.722;2023-02-02T00:02:16;99395.94;;;3.72;100.00
14253;BME280;7210;51.502;10.722;2023-02-02T00:04:45;99401.44;;;3.77;100.00
14253;BME280;7210;51.502;10.722;2023-02-02T00:07:12;99407.16;;;3.87;100.00
14253;BME280;7210;51.502;10.722;2023-02-02T00:09:39;99400.91;;;3.88;100.00
14253;BME280;7210;51.502;10.722;2023-02-02T00:12:10;99405.75;;;3.91;100.00
14253;BME280;7210;51.502;10.722;2023-02-02T00:14:37;99396.06;;;3.85;100.00
14253;BME280;7210;51.502;10.722;2023-02-02T00:17:04;99402.91;;;3.86;100.00
14253;BME280;7210;51.502;10.722;2023-02-02T00:19:34;99398.03;;;3.83;100.00
14253;BME280;7210;51.502;10.722;2023-02-02T00:22:02;99401.66;;;3.82;100.00
14253;BME280;7210;51.502;10.722;2023-02-02T00:24:29;99400.78;;;3.75;100.00
14253;BME280;7210;51.502;10.722;2023-02-02T00:26:58;99402.19;;;3.71;100.00
14253;BME280;7210;51.502;10.722;2023-02-02T00:29:28;99407.16;;;3.66;100.00
14253;BME280;7210;51.502;10.722;2023-02-02T00:31:56;99415.72;;;3.81;100.00
14253;BME280;7210;51.502;10.722;2023-02-02T00:34:24;99415.13;;;3.79;100.00
14253;BME280;7210;51.502;10.722;2023-02-02T00:36:51;99421.97;;;3.80;100.00
14253;BME280;7210;51.502;10.722;2023-02-02T00:39:23;99410.88;;;3.78;100.00
14253;BME280;7210;51.502;10.722;2023-02-02T00:41:51;99415.72;;;3.81;100.00
14253;BME280;7210;51.502;10.722;2023-02-02T00:44:18;99410.47;;;3.74;100.00
14253;BME280;7210;51.502;10.722;2023-02-02T00:47:12;99421.69;;;3.75;100.00
14253;BME280;7210;51.502;10.722;2023-02-02T00:49:39;99414.84;;;3.74;100.00
14253;BME280;7210;51.502;10.722;2023-02-02T00:52:06;99409.03;;;3.72;100.00
14253;BME280;7210;51.502;10.722;2023-02-02T00:54:35;99415.69;;;3.74;100.00
14253;BME280;7210;51.502;10.722;2023-02-02T00:57:02;99419.72;;;3.77;100.00
14253;BME280;7210;51.502;10.722;2023-02-02T00:59:30;99412.94;;;3.82;100.00
14253;BME280;7210;51.502;10.722;2023-02-02T01:01:57;99405.06;;;3.76;100.00
14253;BME280;7210;51.502;10.722;2023-02-02T01:04:24;99412.88;;;3.76;100.00
14253;BME280;7210;51.502;10.722;2023-02-02T01:06:51;99408.28;;;3.78;99.74
14253;BME280;7210;51.502;10.722;2023-02-02T01:09:19;99413.28;;;3.79;99.66
14253;BME280;7210;51.502;10.722;2023-02-02T01:11:48;99397.69;;;3.86;99.23
14253;BME280;7210;51.502;10.722;2023-02-02T01:14:15;99410.97;;;3.91;98.74
14253;BME280;7210;51.502;10.722;2023-02-02T01:16:42;99394.06;;;3.87;98.43
14253;BME280;7210;51.502;10.722;2023-02-02T01:19:12;99394.06;;;3.87;98.27
14253;BME280;7210;51.502;10.722;2023-02-02T01:21:39;99382.59;;;3.88;97.73
14253;BME280;7210;51.502;10.722;2023-02-02T01:24:07;99378.34;;;3.80;97.49
14253;BME280;7210;51.502;10.722;2023-02-02T01:26:40;99378.25;;;3.74;97.43
14253;BME280;7210;51.502;10.722;2023-02-02T01:29:08;99378.66;;;3.71;97.44
14253;BME280;7210;51.502;10.722;2023-02-02T01:31:37;99380.66;;;3.69;97.53
14253;BME280;7210;51.502;10.722;2023-02-02T01:34:04;99383.00;;;3.64;97.29
14253;BME280;7210;51.502;10.722;2023-02-02T01:36:31;99385.63;;;3.64;97.04
14253;BME280;7210;51.502;10.722;2023-02-02T01:39:04;99396.34;;;3.69;96.98
14253;BME280;7210;51.502;10.722;2023-02-02T01:41:31;99391.47;;;3.66;96.88
14253;BME280;7210;51.502;10.722;2023-02-02T01:44:01;99400.69;;;3.62;97.16
14253;BME280;7210;51.502;10.722;2023-02-02T01:46:31;99405.28;;;3.60;97.08
14253;BME280;7210;51.502;10.722;2023-02-02T01:49:06;99402.13;;;3.64;97.10
14253;BME280;7210;51.502;10.722;2023-02-02T01:51:41;99421.25;;;3.71;97.04
14253;BME280;7210;51.502;10.722;2023-02-02T01:54:17;99422.09;;;3.72;96.92
14253;BME280;7210;51.502;10.722;2023-02-02T01:56:50;99417.25;;;3.69;96.86
14253;BME280;7210;51.502;10.722;2023-02-02T01:59:20;99432.53;;;3.72;96.76
14253;BME280;7210;51.502;10.722;2023-02-02T02:01:51;99432.53;;;3.72;96.42
14253;BME280;7210;51.502;10.722;2023-02-02T02:04:24;99425.97;;;3.76;96.41
14253;BME280;7210;51.502;10.722;2023-02-02T02:06:53;99429.31;;;3.70;96.33
14253;BME280;7210;51.502;10.722;2023-02-02T02:09:21;99426.09;;;3.68;96.47
14253;BME280;7210;51.502;10.722;2023-02-02T02:11:51;99430.31;;;3.69;96.43
14253;BME280;7210;51.502;10.722;2023-02-02T02:14:19;99421.94;;;3.59;96.38
14253;BME280;7210;51.502;10.722;2023-02-02T02:17:24;99435.28;;;3.64;96.40
14253;BME280;7210;51.502;10.722;2023-02-02T02:20:43;99430.06;;;3.64;96.19
14253;BME280;7210;51.502;10.722;2023-02-02T02:28:04;99437.28;;;3.62;96.31
14253;BME280;7210;51.502;10.722;2023-02-02T02:31:00;99453.84;;;3.69;95.91
14253;BME280;7210;51.502;10.722;2023-02-02T02:33:45;99454.63;;;3.69;95.79
14253;BME280;7210;51.502;10.722;2023-02-02T02:36:23;99450.97;;;3.64;95.94
14253;BME280;7210;51.502;10.722;2023-02-02T02:39:04;99461.41;;;3.64;95.52
14253;BME280;7210;51.502;10.722;2023-02-02T02:41:45;99467.53;;;3.71;95.50
14253;BME280;7210;51.502;10.722;2023-02-02T02:44:17;99473.53;;;3.71;95.27
14253;BME280;7210;51.502;10.722;2023-02-02T02:46:47;99472.00;;;3.77;95.16
14253;BME280;7210;51.502;10.722;2023-02-02T02:49:17;99489.38;;;3.84;94.93
14253;BME280;7210;51.502;10.722;2023-02-02T02:51:47;99468.91;;;3.88;94.69
14253;BME280;7210;51.502;10.722;2023-02-02T02:54:33;99469.28;;;3.85;94.45
14253;BME280;7210;51.502;10.722;2023-02-02T02:57:43;99459.63;;;3.85;94.22
14253;BME280;7210;51.502;10.722;2023-02-02T03:00:31;99460.78;;;3.83;94.23
14253;BME280;7210;51.502;10.722;2023-02-02T03:03:11;99455.34;;;3.78;94.01
14253;BME280;7210;51.502;10.722;2023-02-02T03:08:51;99476.84;;;3.80;94.29
14253;BME280;7210;51.502;10.722;2023-02-02T03:11:21;99472.81;;;3.77;94.17
14253;BME280;7210;51.502;10.722;2023-02-02T03:13:48;99474.38;;;3.72;94.19
14253;BME280;7210;51.502;10.722;2023-02-02T03:19:34;99488.81;;;3.68;94.38
14253;BME280;7210;51.502;10.722;2023-02-02T03:22:05;99500.25;;;3.67;94.80
14253;BME280;7210;51.502;10.722;2023-02-02T03:24:33;99525.66;;;3.73;94.79
14253;BME280;7210;51.502;10.722;2023-02-02T03:27:01;99517.00;;;3.72;94.75
14253;BME280;7210;51.502;10.722;2023-02-02T03:29:29;99521.69;;;3.77;94.73
14253;BME280;7210;51.502;10.722;2023-02-02T03:31:59;99534.75;;;3.77;94.62
14253;BME280;7210;51.502;10.722;2023-02-02T03:34:26;99531.75;;;3.80;94.52
14253;BME280;7210;51.502;10.722;2023-02-02T03:36:53;99542.91;;;3.88;94.39
14253;BME280;7210;51.502;10.722;2023-02-02T03:39:23;99549.22;;;3.94;94.31
14253;BME280;7210;51.502;10.722;2023-02-02T03:41:51;99549.81;;;3.96;94.23
14253;BME280;7210;51.502;10.722;2023-02-02T03:44:18;99547.47;;;4.01;94.04
14253;BME280;7210;51.502;10.722;2023-02-02T03:46:45;99549.88;;;4.02;93.85
14253;BME280;7210;51.502;10.722;2023-02-02T03:49:12;99546.31;;;4.03;93.88
14253;BME280;7210;51.502;10.722;2023-02-02T03:51:40;99544.22;;;3.99;93.87
14253;BME280;7210;51.502;10.722;2023-02-02T03:54:09;99548.66;;;3.98;93.63
14253;BME280;7210;51.502;10.722;2023-02-02T03:56:36;99541.19;;;3.95;93.71
14253;BME280;7210;51.502;10.722;2023-02-02T03:59:04;99567.28;;;4.10;93.38
14253;BME280;7210;51.502;10.722;2023-02-02T04:01:32;99551.97;;;4.07;93.40
14253;BME280;7210;51.502;10.722;2023-02-02T04:03:59;99556.75;;;4.03;93.50
14253;BME280;7210;51.502;10.722;2023-02-02T04:06:26;99555.56;;;4.06;93.20
14253;BME280;7210;51.502;10.722;2023-02-02T04:08:58;99558.81;;;4.08;93.28
14253;BME280;7210;51.502;10.722;2023-02-02T04:11:26;99565.13;;;3.99;93.03
14253;BME280;7210;51.502;10.722;2023-02-02T04:13:53;99573.50;;;4.09;93.10
14253;BME280;7210;51.502;10.722;2023-02-02T04:16:21;99559.16;;;4.05;93.02
14253;BME280;7210;51.502;10.722;2023-02-02T04:18:49;99583.59;;;4.12;92.97
14253;BME280;7210;51.502;10.722;2023-02-02T04:21:16;99580.19;;;4.11;92.85
14253;BME280;7210;51.502;10.722;2023-02-02T04:23:43;99580.53;;;4.08;92.93
14253;BME280;7210;51.502;10.722;2023-02-02T04:26:10;99579.47;;;4.03;93.25
14253;BME280;7210;51.502;10.722;2023-02-02T04:28:37;99591.09;;;4.00;93.25
14253;BME280;7210;51.502;10.722;2023-02-02T04:31:04;99589.66;;;3.98;93.39
14253;BME280;7210;51.502;10.722;2023-02-02T04:33:33;99587.81;;;3.92;93.49
14253;BME280;7210;51.502;10.722;2023-02-02T04:36:01;99609.34;;;3.94;93.58
14253;BME280;7210;51.502;10.722;2023-02-02T04:38:29;99619.81;;;3.94;93.46
14253;BME280;7210;51.502;10.722;2023-02-02T04:40:56;99617.94;;;3.88;93.55
14253;BME280;7210;51.502;10.722;2023-02-02T04:43:23;99624.78;;;3.89;93.65
14253;BME280;7210;51.502;10.722;2023-02-02T04:45:54;99637.28;;;3.93;93.87
14253;BME280;7210;51.502;10.722;2023-02-02T04:48:22;99643.59;;;3.99;93.70
14253;BME280;7210;51.502;10.722;2023-02-02T04:50:50;99647.00;;;4.14;93.74
14253;BME280;7210;51.502;10.722;2023-02-02T04:53:17;99643.94;;;4.10;93.59
14253;BME280;7210;51.502;10.722;2023-02-02T04:55:44;99652.59;;;4.11;93.58
14253;BME280;7210;51.502;10.722;2023-02-02T04:58:12;99661.34;;;4.18;93.70
14253;BME280;7210;51.502;10.722;2023-02-02T05:00:40;99659.53;;;4.18;93.69
14253;BME280;7210;51.502;10.722;2023-02-02T05:03:08;99657.88;;;4.17;93.72
14253;BME280;7210;51.502;10.722;2023-02-02T05:05:35;99663.78;;;4.19;93.27
14253;BME280;7210;51.502;10.722;2023-02-02T05:08:04;99658.72;;;4.18;93.38
14253;BME280;7210;51.502;10.722;2023-02-02T05:10:33;99646.13;;;4.07;93.15
14253;BME280;7210;51.502;10.722;2023-02-02T05:13:00;99657.81;;;4.11;93.61
14253;BME280;7210;51.502;10.722;2023-02-02T05:15:27;99661.63;;;4.08;93.62
14253;BME280;7210;51.502;10.722;2023-02-02T05:17:54;99671.00;;;4.03;93.67
14253;BME280;7210;51.502;10.722;2023-02-02T05:20:21;99672.34;;;3.99;93.87
14253;BME280;7210;51.502;10.722;2023-02-02T05:22:48;99676.72;;;3.92;94.14
14253;BME280;7210;51.502;10.722;2023-02-02T05:25:17;99702.31;;;3.96;94.23
14253;BME280;7210;51.502;10.722;2023-02-02T05:27:45;99715.41;;;3.96;94.40
14253;BME280;7210;51.502;10.722;2023-02-02T05:30:13;99706.44;;;3.91;94.59
14253;BME280;7210;51.502;10.722;2023-02-02T05:32:40;99717.28;;;3.88;94.68
14253;BME280;7210;51.502;10.722;2023-02-02T05:35:09;99720.72;;;3.88;94.79
14253;BME280;7210;51.502;10.722;2023-02-02T05:37:36;99715.38;;;3.82;94.99
14253;BME280;7210;51.502;10.722;2023-02-02T05:40:04;99732.06;;;3.81;95.23
14253;BME280;7210;51.502;10.722;2023-02-02T05:42:33;99735.84;;;3.78;95.30
14253;BME280;7210;51.502;10.722;2023-02-02T05:45:00;99751.19;;;3.81;95.61
14253;BME280;7210;51.502;10.722;2023-02-02T05:47:28;99750.38;;;3.81;95.88
14253;BME280;7210;51.502;10.722;2023-02-02T05:49:55;99769.75;;;3.86;95.86
14253;BME280;7210;51.502;10.722;2023-02-02T05:52:24;99773.19;;;3.87;96.34
14253;BME280;7210;51.502;10.722;2023-02-02T05:54:51;99785.56;;;3.93;96.26
14253;BME280;7210;51.502;10.722;2023-02-02T05:57:18;99781.56;;;3.97;96.62
14253;BME280;7210;51.502;10.722;2023-02-02T05:59:47;99789.06;;;4.00;96.65
14253;BME280;7210;51.502;10.722;2023-02-02T06:02:14;99791.16;;;4.04;96.75
14253;BME280;7210;51.502;10.722;2023-02-02T06:04:41;99791.94;;;4.05;96.81
14253;BME280;7210;51.502;10.722;2023-02-02T06:07:08;99796.19;;;4.06;96.89
14253;BME280;7210;51.502;10.722;2023-02-02T06:09:36;99795.22;;;4.07;96.66
14253;BME280;7210;51.502;10.722;2023-02-02T06:12:04;99794.56;;;4.05;97.04
14253;BME280;7210;51.502;10.722;2023-02-02T06:14:32;99793.13;;;4.02;97.14
14253;BME280;7210;51.502;10.722;2023-02-02T06:17:00;99794.31;;;4.00;97.36
14253;BME280;7210;51.502;10.722;2023-02-02T06:19:27;99792.41;;;3.94;97.34
14253;BME280;7210;51.502;10.722;2023-02-02T06:21:54;99808.09;;;3.94;97.48
14253;BME280;7210;51.502;10.722;2023-02-02T06:24:22;99810.09;;;3.92;97.69
14253;BME280;7210;51.502;10.722;2023-02-02T06:26:52;99812.69;;;3.92;97.73
14253;BME280;7210;51.502;10.722;2023-02-02T06:29:24;99813.88;;;3.89;97.89
14253;BME280;7210;51.502;10.722;2023-02-02T06:32:01;99810.66;;;3.79;98.32
14253;BME280;7210;51.502;10.722;2023-02-02T06:34:29;99821.13;;;3.79;98.41
14253;BME280;7210;51.502;10.722;2023-02-02T06:37:05;99818.72;;;3.78;98.60
14253;BME280;7210;51.502;10.722;2023-02-02T06:39:41;99828.34;;;3.77;98.85
14253;BME280;7210;51.502;10.722;2023-02-02T06:42:08;99839.63;;;3.78;99.32
14253;BME280;7210;51.502;10.722;2023-02-02T06:44:35;99854.31;;;3.79;99.08
14253;BME280;7210;51.502;10.722;2023-02-02T06:47:03;99854.63;;;3.84;99.70
14253;BME280;7210;51.502;10.722;2023-02-02T06:49:30;99878.78;;;3.86;99.51
14253;BME280;7210;51.502;10.722;2023-02-02T06:51:58;99875.16;;;3.87;99.48
14253;BME280;7210;51.502;10.722;2023-02-02T06:54:25;99863.34;;;3.91;99.65
14253;BME280;7210;51.502;10.722;2023-02-02T06:56:52;99866.78;;;3.91;99.63
14253;BME280;7210;51.502;10.722;2023-02-02T06:59:20;99872.31;;;3.96;99.85
14253;BME280;7210;51.502;10.722;2023-02-02T07:01:58;99870.50;;;3.97;99.75
14253;BME280;7210;51.502;10.722;2023-02-02T07:04:27;99876.72;;;3.96;99.82
14253;BME280;7210;51.502;10.722;2023-02-02T07:06:58;99880.63;;;4.00;100.00
14253;BME280;7210;51.502;10.722;2023-02-02T07:09:26;99882.56;;;3.98;99.97
14253;BME280;7210;51.502;10.722;2023-02-02T07:11:53;99894.25;;;4.10;100.00
14253;BME280;7210;51.502;10.722;2023-02-02T07:14:20;99893.72;;;4.14;99.90
14253;BME280;7210;51.502;10.722;2023-02-02T07:16:47;99860.41;;;3.94;99.95
14253;BME280;7210;51.502;10.722;2023-02-02T07:19:14;99900.66;;;4.22;99.55
14253;BME280;7210;51.502;10.722;2023-02-02T07:21:43;99893.81;;;4.21;99.59
14253;BME280;7210;51.502;10.722;2023-02-02T07:24:10;99900.66;;;4.22;99.95
14253;BME280;7210;51.502;10.722;2023-02-02T07:26:37;99895.09;;;4.25;99.62
14253;BME280;7210;51.502;10.722;2023-02-02T07:29:04;99912.22;;;4.27;99.63
14253;BME280;7210;51.502;10.722;2023-02-02T07:31:32;99899.94;;;4.28;99.76
14253;BME280;7210;51.502;10.722;2023-02-02T07:33:59;99910.06;;;4.31;99.82
14253;BME280;7210;51.502;10.722;2023-02-02T07:36:26;99917.19;;;4.37;99.96
14253;BME280;7210;51.502;10.722;2023-02-02T07:38:54;99927.94;;;4.42;99.83
14253;BME280;7210;51.502;10.722;2023-02-02T07:41:22;99925.94;;;4.44;99.52
14253;BME280;7210;51.502;10.722;2023-02-02T07:43:50;99925.59;;;4.47;99.36
14253;BME280;7210;51.502;10.722;2023-02-02T07:46:19;99927.47;;;4.53;99.64
14253;BME280;7210;51.502;10.722;2023-02-02T07:48:47;99916.38;;;4.51;99.60
14253;BME280;7210;51.502;10.722;2023-02-02T07:51:16;99921.63;;;4.51;99.64
14253;BME280;7210;51.502;10.722;2023-02-02T07:53:45;99921.47;;;4.52;99.35
14253;BME280;7210;51.502;10.722;2023-02-02T07:56:16;99920.47;;;4.53;99.47
14253;BME280;7210;51.502;10.722;2023-02-02T07:58:44;99926.31;;;4.55;99.61
14253;BME280;7210;51.502;10.722;2023-02-02T08:01:14;99920.91;;;4.57;99.40
14253;BME280;7210;51.502;10.722;2023-02-02T08:03:47;99922.53;;;4.58;99.33
14253;BME280;7210;51.502;10.722;2023-02-02T08:06:18;99922.69;;;4.56;99.31
14253;BME280;7210;51.502;10.722;2023-02-02T08:08:46;99915.41;;;4.52;99.37
14253;BME280;7210;51.502;10.722;2023-02-02T08:11:18;99925.78;;;4.60;99.57
14253;BME280;7210;51.502;10.722;2023-02-02T08:13:49;99932.28;;;4.64;99.62
14253;BME280;7210;51.502;10.722;2023-02-02T08:16:24;99932.56;;;4.69;99.12
14253;BME280;7210;51.502;10.722;2023-02-02T08:18:52;99950.06;;;4.68;99.32
14253;BME280;7210;51.502;10.722;2023-02-02T08:21:21;99962.63;;;4.73;99.18
14253;BME280;7210;51.502;10.722;2023-02-02T08:23:48;99964.25;;;4.74;99.42
14253;BME280;7210;51.502;10.722;2023-02-02T08:26:21;99961.63;;;4.74;99.57
14253;BME280;7210;51.502;10.722;2023-02-02T08:28:52;99968.31;;;4.76;99.17
14253;BME280;7210;51.502;10.722;2023-02-02T08:31:22;99962.91;;;4.78;99.12
14253;BME280;7210;51.502;10.722;2023-02-02T08:33:50;99955.06;;;4.78;98.06
14253;BME280;7210;51.502;10.722;2023-02-02T08:36:25;99929.59;;;4.72;97.26
14253;BME280;7210;51.502;10.722;2023-02-02T08:38:53;99908.09;;;4.62;96.89
14253;BME280;7210;51.502;10.722;2023-02-02T08:41:23;99912.97;;;4.65;96.75
14253;BME280;7210;51.502;10.722;2023-02-02T08:43:50;99907.19;;;4.55;96.57
14253;BME280;7210;51.502;10.722;2023-02-02T08:46:19;99906.91;;;4.50;96.48
14253;BME280;7210;51.502;10.722;2023-02-02T08:48:47;99916.75;;;4.48;96.80
14253;BME280;7210;51.502;10.722;2023-02-02T08:51:17;99913.84;;;4.43;96.68
14253;BME280;7210;51.502;10.722;2023-02-02T08:53:46;99916.84;;;4.40;96.96
14253;BME280;7210;51.502;10.722;2023-02-02T08:56:16;99931.56;;;4.41;97.22
14253;BME280;7210;51.502;10.722;2023-02-02T08:58:46;99924.59;;;4.33;96.92
14253;BME280;7210;51.502;10.722;2023-02-02T09:01:17;99930.19;;;4.30;97.10
14253;BME280;7210;51.502;10.722;2023-02-02T09:03:47;99936.25;;;4.31;97.16
14253;BME280;7210;51.502;10.722;2023-02-02T09:06:16;99928.72;;;4.28;97.10
14253;BME280;7210;51.502;10.722;2023-02-02T09:08:45;99937.13;;;4.23;97.24
14253;BME280;7210;51.502;10.722;2023-02-02T09:11:15;99949.88;;;4.26;96.97
14253;BME280;7210;51.502;10.722;2023-02-02T09:13:47;99947.41;;;4.25;97.39
14253;BME280;7210;51.502;10.722;2023-02-02T09:16:17;99944.34;;;4.21;97.21
14253;BME280;7210;51.502;10.722;2023-02-02T09:18:47;99952.97;;;4.22;97.19
14253;BME280;7210;51.502;10.722;2023-02-02T09:21:17;99963.91;;;4.25;97.57
14253;BME280;7210;51.502;10.722;2023-02-02T09:23:46;99973.56;;;4.25;97.63
14253;BME280;7210;51.502;10.722;2023-02-02T09:26:17;99982.41;;;4.24;97.98
14253;BME280;7210;51.502;10.722;2023-02-02T09:28:49;99990.81;;;4.19;98.01
14253;BME280;7210;51.502;10.722;2023-02-02T09:31:17;100003.22;;;4.17;98.43
14253;BME280;7210;51.502;10.722;2023-02-02T09:33:47;100007.34;;;4.12;98.70
14253;BME280;7210;51.502;10.722;2023-02-02T09:36:16;100025.84;;;4.10;98.96
14253;BME280;7210;51.502;10.722;2023-02-02T09:38:45;100043.00;;;4.13;99.44
14253;BME280;7210;51.502;10.722;2023-02-02T09:41:51;100049.84;;;4.14;100.00
14253;BME280;7210;51.502;10.722;2023-02-02T09:44:55;100057.91;;;4.12;100.00
14253;BME280;7210;51.502;10.722;2023-02-02T09:47:35;100072.13;;;4.10;100.00
14253;BME280;7210;51.502;10.722;2023-02-02T09:50:17;100068.88;;;4.08;100.00
14253;BME280;7210;51.502;10.722;2023-02-02T09:52:54;100090.50;;;4.02;100.00
14253;BME280;7210;51.502;10.722;2023-02-02T09:55:32;100101.69;;;4.10;100.00
14253;BME280;7210;51.502;10.722;2023-02-02T09:58:13;100089.50;;;4.03;100.00
14253;BME280;7210;51.502;10.722;2023-02-02T10:00:58;100098.50;;;4.00;100.00
14253;BME280;7210;51.502;10.722;2023-02-02T10:03:35;100109.59;;;4.02;100.00
14253;BME280;7210;51.502;10.722;2023-02-02T10:06:25;100111.72;;;4.07;100.00
14253;BME280;7210;51.502;10.722;2023-02-02T10:09:02;100123.81;;;4.08;100.00
14253;BME280;7210;51.502;10.722;2023-02-02T10:11:41;100132.25;;;4.18;100.00
14253;BME280;7210;51.502;10.722;2023-02-02T10:14:17;100138.13;;;4.20;100.00
14253;BME280;7210;51.502;10.722;2023-02-02T10:16:51;100133.19;;;4.25;100.00
14253;BME280;7210;51.502;10.722;2023-02-02T10:19:22;100135.59;;;4.34;100.00
14253;BME280;7210;51.502;10.722;2023-02-02T10:22:01;100140.47;;;4.37;100.00
14253;BME280;7210;51.502;10.722;2023-02-02T10:24:36;100136.50;;;4.41;100.00
14253;BME280;7210;51.502;10.722;2023-02-02T10:27:08;100138.25;;;4.49;100.00
14253;BME280;7210;51.502;10.722;2023-02-02T10:29:51;100137.91;;;4.52;100.00
14253;BME280;7210;51.502;10.722;2023-02-02T10:32:26;100140.53;;;4.52;100.00
14253;BME280;7210;51.502;10.722;2023-02-02T10:35:22;100133.03;;;4.49;100.00
14253;BME280;7210;51.502;10.722;2023-02-02T10:38:02;100120.31;;;4.46;100.00
14253;BME280;7210;51.502;10.722;2023-02-02T10:40:46;100126.81;;;4.50;100.00
14253;BME280;7210;51.502;10.722;2023-02-02T10:43:47;100125.81;;;4.51;100.00
14253;BME280;7210;51.502;10.722;2023-02-02T10:46:23;100104.34;;;4.33;100.00
14253;BME280;7210;51.502;10.722;2023-02-02T10:49:12;100116.75;;;4.39;100.00
14253;BME280;7210;51.502;10.722;2023-02-02T10:51:44;100126.50;;;4.45;100.00
14253;BME280;7210;51.502;10.722;2023-02-02T10:54:39;100125.81;;;4.51;100.00
14253;BME280;7210;51.502;10.722;2023-02-02T10:57:15;100131.34;;;4.56;100.00
14253;BME280;7210;51.502;10.722;2023-02-02T10:59:59;100143.38;;;4.65;100.00
14253;BME280;7210;51.502;10.722;2023-02-02T11:02:31;100138.59;;;4.68;100.00
14253;BME280;7210;51.502;10.722;2023-02-02T11:05:00;100137.78;;;4.68;100.00
14253;BME280;7210;51.502;10.722;2023-02-02T11:07:45;100136.81;;;4.69;100.00
14253;BME280;7210;51.502;10.722;2023-02-02T11:10:14;100135.00;;;4.69;100.00
14253;BME280;7210;51.502;10.722;2023-02-02T11:12:45;100126.50;;;4.67;100.00
14253;BME280;7210;51.502;10.722;2023-02-02T11:15:28;100134.19;;;4.69;100.00
14253;BME280;7210;51.502;10.722;2023-02-02T11:18:11;100130.59;;;4.70;100.00
14253;BME280;7210;51.502;10.722;2023-02-02T11:20:42;100127.31;;;4.68;100.00
14253;BME280;7210;51.502;10.722;2023-02-02T11:23:17;100127.31;;;4.68;100.00
14253;BME280;7210;51.502;10.722;2023-02-02T11:25:45;100122.72;;;4.70;100.00
14253;BME280;7210;51.502;10.722;2023-02-02T11:28:25;100136.44;;;4.72;100.00
14253;BME280;7210;51.502;10.722;2023-02-02T11:30:56;100124.53;;;4.69;100.00
14253;BME280;7210;51.502;10.722;2023-02-02T11:33:30;100144.78;;;4.75;100.00
14253;BME280;7210;51.502;10.722;2023-02-02T11:36:02;100137.72;;;4.76;100.00
14253;BME280;7210;51.502;10.722;2023-02-02T11:38:30;100144.59;;;4.77;100.00
14253;BME280;7210;51.502;10.722;2023-02-02T11:41:01;100137.22;;;4.80;100.00
14253;BME280;7210;51.502;10.722;2023-02-02T11:43:33;100148.94;;;4.84;100.00
14253;BME280;7210;51.502;10.722;2023-02-02T11:46:17;100136.03;;;4.83;100.00
14253;BME280;7210;51.502;10.722;2023-02-02T11:48:49;100137.66;;;4.84;100.00
14253;BME280;7210;51.502;10.722;2023-02-02T11:51:25;100148.13;;;4.84;100.00
14253;BME280;7210;51.502;10.722;2023-02-02T11:54:02;100144.53;;;4.85;100.00
14253;BME280;7210;51.502;10.722;2023-02-02T11:56:33;100144.81;;;4.90;100.00
14253;BME280;7210;51.502;10.722;2023-02-02T11:59:02;100139.56;;;4.90;100.00
14253;BME280;7210;51.502;10.722;2023-02-02T12:01:33;100142.19;;;4.90;100.00
14253;BME280;7210;51.502;10.722;2023-02-02T12:04:02;100125.91;;;4.80;100.00
14253;BME280;7210;51.502;10.722;2023-02-02T12:06:36;100127.06;;;4.77;100.00
14253;BME280;7210;51.502;10.722;2023-02-02T12:09:12;100128.53;;;4.80;100.00
14253;BME280;7210;51.502;10.722;2023-02-02T12:11:55;100139.63;;;4.82;100.00
14253;BME280;7210;51.502;10.722;2023-02-02T12:14:39;100136.38;;;4.80;100.00
14253;BME280;7210;51.502;10.722;2023-02-02T12:17:32;100139.63;;;4.82;100.00
14253;BME280;7210;51.502;10.722;2023-02-02T12:20:25;100145.50;;;4.84;100.00
14253;BME280;7210;51.502;10.722;2023-02-02T12:26:18;100128.22;;;4.75;100.00
14253;BME280;7210;51.502;10.722;2023-02-02T12:29:34;100138.84;;;4.81;100.00
14253;BME280;7210;51.502;10.722;2023-02-02T12:32:18;100138.56;;;4.91;100.00
14253;BME280;7210;51.502;10.722;2023-02-02T12:35:01;100154.22;;;4.99;100.00
14253;BME280;7210;51.502;10.722;2023-02-02T12:37:49;100149.97;;;4.98;100.00
14253;BME280;7210;51.502;10.722;2023-02-02T12:43:32;100132.41;;;4.84;100.00
14253;BME280;7210;51.502;10.722;2023-02-02T12:46:25;100132.06;;;4.87;100.00
14253;BME280;7210;51.502;10.722;2023-02-02T12:49:12;100128.81;;;4.85;100.00
14253;BME280;7210;51.502;10.722;2023-02-02T12:52:01;100133.25;;;4.84;100.00
14253;BME280;7210;51.502;10.722;2023-02-02T12:54:51;100130.69;;;4.76;100.00
14253;BME280;7210;51.502;10.722;2023-02-02T12:57:46;100122.72;;;4.70;100.00
14253;BME280;7210;51.502;10.722;2023-02-02T13:00:43;100136.00;;;4.68;100.00
14253;BME280;7210;51.502;10.722;2023-02-02T13:03:28;100133.84;;;4.72;100.00
14253;BME280;7210;51.502;10.722;2023-02-02T13:06:37;100146.56;;;4.75;100.00
14253;BME280;7210;51.502;10.722;2023-02-02T13:09:16;100151.63;;;4.76;100.00
14253;BME280;7210;51.502;10.722;2023-02-02T13:11:51;100165.03;;;4.81;100.00
14253;BME280;7210;51.502;10.722;2023-02-02T13:14:25;100166.28;;;4.85;100.00
14253;BME280;7210;51.502;10.722;2023-02-02T13:17:00;100166.75;;;4.89;100.00
14253;BME280;7210;51.502;10.722;2023-02-02T13:19:34;100164.75;;;4.91;100.00
14253;BME280;7210;51.502;10.722;2023-02-02T13:22:07;100172.09;;;4.95;100.00
14253;BME280;7210;51.502;10.722;2023-02-02T13:24:39;100150.03;;;4.90;100.00
14253;BME280;7210;51.502;10.722;2023-02-02T13:27:17;100159.53;;;4.91;100.00
14253;BME280;7210;51.502;10.722;2023-02-02T13:29:52;100151.88;;;4.89;100.00
14253;BME280;7210;51.502;10.722;2023-02-02T13:32:29;100154.75;;;4.94;100.00
14253;BME280;7210;51.502;10.722;2023-02-02T13:35:02;100162.44;;;4.96;100.00
14253;BME280;7210;51.502;10.722;2023-02-02T13:37:41;100158.53;;;4.92;100.00
14253;BME280;7210;51.502;10.722;2023-02-02T13:40:23;100150.25;;;4.88;100.00
14253;BME280;7210;51.502;10.722;2023-02-02T13:43:02;100154.66;;;4.88;100.00
14253;BME280;7210;51.502;10.722;2023-02-02T13:45:52;100170.22;;;4.89;100.00
14253;BME280;7210;51.502;10.722;2023-02-02T13:48:32;100169.00;;;4.92;100.00
14253;BME280;7210;51.502;10.722;2023-02-02T13:51:37;100176.53;;;4.95;100.00